sensor_id;sensor_type;location;lat;lon;timestamp;P1;durP1;ratioP1;P2;durP2;ratioP2
49876;SDS011;35771;48.978;9.294;2022-08-19T07:33:21;23.27;;;14.35;;
49876;SDS011;35771;48.978;9.294;2022-08-19T07:35:47;20.52;;;14.60;;
49876;SDS011;35771;48.978;9.294;2022-08-19T07:38:14;23.85;;;15.63;;
49876;SDS011;35771;48.978;9.294;2022-08-19T07:40:42;21.80;;;13.93;;
49876;SDS011;35771;48.978;9.294;2022-08-19T07:43:10;22.35;;;14.70;;
49876;SDS011;35771;48.978;9.294;2022-08-19T07:45:37;21.77;;;13.85;;
49876;SDS011;35771;48.978;9.294;2022-08-19T07:48:04;19.77;;;13.57;;
49876;SDS011;35771;48.978;9.294;2022-08-19T07:50:32;20.85;;;14.68;;
49876;SDS011;35771;48.978;9.294;2022-08-19T07:52:58;22.25;;;14.48;;
49876;SDS011;35771;48.978;9.294;2022-08-19T07:55:25;21.40;;;14.23;;
49876;SDS011;35771;48.978;9.294;2022-08-19T07:57:52;22.50;;;13.48;;
49876;SDS011;35771;48.978;9.294;2022-08-19T08:00:18;17.17;;;12.85;;
49876;SDS011;35771;48.978;9.294;2022-08-19T08:02:45;17.77;;;13.05;;
49876;SDS011;35771;48.978;9.294;2022-08-19T08:05:11;22.52;;;14.38;;
49876;SDS011;35771;48.978;9.294;2022-08-19T08:07:57;20.52;;;13.50;;
49876;SDS011;35771;48.978;9.294;2022-08-19T08:10:52;19.85;;;13.38;;
49876;SDS011;35771;48.978;9.294;2022-08-19T08:13:19;21.98;;;13.52;;
49876;SDS011;35771;48.978;9.294;2022-08-19T08:15:45;17.95;;;12.57;;
49876;SDS011;35771;48.978;9.294;2022-08-19T08:18:12;17.50;;;13.52;;
49876;SDS011;35771;48.978;9.294;2022-08-19T08:20:38;20.55;;;13.32;;
49876;SDS011;35771;48.978;9.294;2022-08-19T08:23:06;17.52;;;13.35;;
49876;SDS011;35771;48.978;9.294;2022-08-19T08:25:50;18.85;;;13.07;;
49876;SDS011;35771;48.978;9.294;2022-08-19T08:28:17;19.75;;;13.25;;
49876;SDS011;35771;48.978;9.294;2022-08-19T08:30:44;16.60;;;12.48;;
49876;SDS011;35771;48.978;9.294;2022-08-19T08:33:12;21.20;;;13.00;;
49876;SDS011;35771;48.978;9.294;2022-08-19T08:35:40;20.98;;;12.88;;
49876;SDS011;35771;48.978;9.294;2022-08-19T08:38:09;17.75;;;12.90;;
49876;SDS011;35771;48.978;9.294;2022-08-19T08:40:38;16.48;;;11.43;;
49876;SDS011;35771;48.978;9.294;2022-08-19T08:43:09;20.15;;;12.80;;
49876;SDS011;35771;48.978;9.294;2022-08-19T08:45:47;17.98;;;12.05;;
49876;SDS011;35771;48.978;9.294;2022-08-19T08:48:19;16.92;;;12.35;;
49876;SDS011;35771;48.978;9.294;2022-08-19T08:50:49;18.90;;;13.38;;
49876;SDS011;35771;48.978;9.294;2022-08-19T08:53:20;23.40;;;12.95;;
49876;SDS011;35771;48.978;9.294;2022-08-19T08:55:47;23.48;;;12.00;;
49876;SDS011;35771;48.978;9.294;2022-08-19T08:58:14;16.42;;;11.50;;
49876;SDS011;35771;48.978;9.294;2022-08-19T09:00:48;23.30;;;12.95;;
49876;SDS011;35771;48.978;9.294;2022-08-19T09:03:16;17.90;;;11.77;;
49876;SDS011;35771;48.978;9.294;2022-08-19T09:05:46;19.88;;;12.15;;
49876;SDS011;35771;48.978;9.294;2022-08-19T09:08:25;18.58;;;11.75;;
49876;SDS011;35771;48.978;9.294;2022-08-19T09:11:08;17.60;;;12.13;;
49876;SDS011;35771;48.978;9.294;2022-08-19T09:13:41;16.15;;;10.95;;
49876;SDS011;35771;48.978;9.294;2022-08-19T09:16:16;18.48;;;11.95;;
49876;SDS011;35771;48.978;9.294;2022-08-19T09:18:47;15.13;;;10.70;;
49876;SDS011;35771;48.978;9.294;2022-08-19T09:21:18;15.10;;;10.77;;
49876;SDS011;35771;48.978;9.294;2022-08-19T09:23:46;14.15;;;10.43;;
49876;SDS011;35771;48.978;9.294;2022-08-19T09:26:14;14.00;;;9.82;;
49876;SDS011;35771;48.978;9.294;2022-08-19T09:28:42;15.20;;;9.95;;
49876;SDS011;35771;48.978;9.294;2022-08-19T09:31:09;18.40;;;10.98;;
49876;SDS011;35771;48.978;9.294;2022-08-19T09:33:36;17.60;;;10.23;;
49876;SDS011;35771;48.978;9.294;2022-08-19T09:36:04;17.25;;;11.50;;
49876;SDS011;35771;48.978;9.294;2022-08-19T09:38:32;14.85;;;9.88;;
49876;SDS011;35771;48.978;9.294;2022-08-19T09:41:03;16.33;;;9.35;;
49876;SDS011;35771;48.978;9.294;2022-08-19T09:43:30;19.73;;;9.95;;
49876;SDS011;35771;48.978;9.294;2022-08-19T09:45:58;14.32;;;10.02;;
49876;SDS011;35771;48.978;9.294;2022-08-19T09:48:25;13.27;;;9.80;;
49876;SDS011;35771;48.978;9.294;2022-08-19T09:50:51;12.98;;;9.15;;
49876;SDS011;35771;48.978;9.294;2022-08-19T09:53:18;19.85;;;9.77;;
49876;SDS011;35771;48.978;9.294;2022-08-19T09:55:47;15.50;;;8.93;;
49876;SDS011;35771;48.978;9.294;2022-08-19T09:58:15;16.25;;;10.00;;
49876;SDS011;35771;48.978;9.294;2022-08-19T10:00:41;12.40;;;9.38;;
49876;SDS011;35771;48.978;9.294;2022-08-19T10:03:08;17.75;;;8.90;;
49876;SDS011;35771;48.978;9.294;2022-08-19T10:05:36;14.50;;;8.55;;
49876;SDS011;35771;48.978;9.294;2022-08-19T10:08:15;16.13;;;9.02;;
49876;SDS011;35771;48.978;9.294;2022-08-19T10:10:43;11.65;;;9.00;;
49876;SDS011;35771;48.978;9.294;2022-08-19T10:13:11;12.45;;;8.95;;
49876;SDS011;35771;48.978;9.294;2022-08-19T10:15:39;14.63;;;8.80;;
49876;SDS011;35771;48.978;9.294;2022-08-19T10:18:05;14.60;;;9.27;;
49876;SDS011;35771;48.978;9.294;2022-08-19T10:20:32;13.68;;;9.68;;
49876;SDS011;35771;48.978;9.294;2022-08-19T10:23:00;17.52;;;10.05;;
49876;SDS011;35771;48.978;9.294;2022-08-19T10:25:27;14.98;;;8.73;;
49876;SDS011;35771;48.978;9.294;2022-08-19T10:27:53;13.25;;;9.02;;
49876;SDS011;35771;48.978;9.294;2022-08-19T10:30:20;16.27;;;8.27;;
49876;SDS011;35771;48.978;9.294;2022-08-19T10:32:48;13.10;;;8.15;;
49876;SDS011;35771;48.978;9.294;2022-08-19T10:35:14;11.82;;;7.88;;
49876;SDS011;35771;48.978;9.294;2022-08-19T10:37:42;14.27;;;8.00;;
49876;SDS011;35771;48.978;9.294;2022-08-19T10:40:08;13.63;;;7.28;;
49876;SDS011;35771;48.978;9.294;2022-08-19T10:42:36;12.60;;;7.18;;
49876;SDS011;35771;48.978;9.294;2022-08-19T10:45:03;14.43;;;7.30;;
49876;SDS011;35771;48.978;9.294;2022-08-19T10:47:32;9.98;;;6.80;;
49876;SDS011;35771;48.978;9.294;2022-08-19T10:50:00;9.15;;;7.38;;
49876;SDS011;35771;48.978;9.294;2022-08-19T10:52:45;15.60;;;6.97;;
49876;SDS011;35771;48.978;9.294;2022-08-19T10:55:13;10.75;;;7.25;;
49876;SDS011;35771;48.978;9.294;2022-08-19T10:57:57;10.57;;;6.95;;
49876;SDS011;35771;48.978;9.294;2022-08-19T11:00:24;8.48;;;5.93;;
49876;SDS011;35771;48.978;9.294;2022-08-19T11:02:51;8.18;;;6.07;;
49876;SDS011;35771;48.978;9.294;2022-08-19T11:05:19;8.40;;;6.13;;
49876;SDS011;35771;48.978;9.294;2022-08-19T11:07:47;14.73;;;5.93;;
49876;SDS011;35771;48.978;9.294;2022-08-19T11:10:15;12.13;;;5.50;;
49876;SDS011;35771;48.978;9.294;2022-08-19T11:12:44;10.07;;;5.40;;
49876;SDS011;35771;48.978;9.294;2022-08-19T11:15:11;9.68;;;5.07;;
49876;SDS011;35771;48.978;9.294;2022-08-19T11:17:38;7.72;;;4.95;;
49876;SDS011;35771;48.978;9.294;2022-08-19T11:20:09;7.22;;;4.57;;
49876;SDS011;35771;48.978;9.294;2022-08-19T11:22:38;6.90;;;4.70;;
49876;SDS011;35771;48.978;9.294;2022-08-19T11:25:06;4.23;;;3.80;;
49876;SDS011;35771;48.978;9.294;2022-08-19T11:27:36;9.77;;;4.82;;
49876;SDS011;35771;48.978;9.294;2022-08-19T11:30:04;9.50;;;5.88;;
49876;SDS011;35771;48.978;9.294;2022-08-19T11:32:32;8.65;;;5.03;;
49876;SDS011;35771;48.978;9.294;2022-08-19T11:34:59;6.07;;;4.78;;
49876;SDS011;35771;48.978;9.294;2022-08-19T11:37:25;7.25;;;4.07;;
49876;SDS011;35771;48.978;9.294;2022-08-19T11:39:56;13.48;;;4.15;;
49876;SDS011;35771;48.978;9.294;2022-08-19T11:42:22;6.85;;;3.45;;
49876;SDS011;35771;48.978;9.294;2022-08-19T11:45:07;6.43;;;4.07;;
49876;SDS011;35771;48.978;9.294;2022-08-19T11:47:35;4.75;;;3.65;;
49876;SDS011;35771;48.978;9.294;2022-08-19T11:50:04;4.40;;;3.45;;
49876;SDS011;35771;48.978;9.294;2022-08-19T11:52:31;7.68;;;3.90;;
49876;SDS011;35771;48.978;9.294;2022-08-19T11:54:59;5.57;;;3.92;;
49876;SDS011;35771;48.978;9.294;2022-08-19T11:57:26;5.95;;;4.10;;
49876;SDS011;35771;48.978;9.294;2022-08-19T11:59:52;7.53;;;3.75;;
49876;SDS011;35771;48.978;9.294;2022-08-19T12:02:19;6.50;;;3.70;;
49876;SDS011;35771;48.978;9.294;2022-08-19T12:04:46;10.70;;;4.20;;
49876;SDS011;35771;48.978;9.294;2022-08-19T12:07:13;10.35;;;4.03;;
49876;SDS011;35771;48.978;9.294;2022-08-19T12:09:39;4.82;;;3.60;;
49876;SDS011;35771;48.978;9.294;2022-08-19T12:12:08;5.32;;;3.45;;
49876;SDS011;35771;48.978;9.294;2022-08-19T12:14:34;5.68;;;3.80;;
49876;SDS011;35771;48.978;9.294;2022-08-19T12:17:01;6.32;;;3.72;;
49876;SDS011;35771;48.978;9.294;2022-08-19T12:19:29;3.92;;;3.50;;
49876;SDS011;35771;48.978;9.294;2022-08-19T12:21:58;6.32;;;3.58;;
49876;SDS011;35771;48.978;9.294;2022-08-19T12:24:26;5.03;;;3.50;;
49876;SDS011;35771;48.978;9.294;2022-08-19T12:26:53;6.88;;;3.63;;
49876;SDS011;35771;48.978;9.294;2022-08-19T12:29:21;6.13;;;3.85;;
49876;SDS011;35771;48.978;9.294;2022-08-19T12:31:49;4.95;;;3.67;;
49876;SDS011;35771;48.978;9.294;2022-08-19T12:34:15;5.55;;;3.50;;
49876;SDS011;35771;48.978;9.294;2022-08-19T12:36:42;4.47;;;3.38;;
49876;SDS011;35771;48.978;9.294;2022-08-19T12:39:08;5.40;;;3.10;;
49876;SDS011;35771;48.978;9.294;2022-08-19T12:41:35;5.15;;;3.72;;
49876;SDS011;35771;48.978;9.294;2022-08-19T12:44:01;7.13;;;3.70;;
49876;SDS011;35771;48.978;9.294;2022-08-19T12:46:29;5.25;;;3.40;;
49876;SDS011;35771;48.978;9.294;2022-08-19T12:48:56;5.22;;;3.15;;
49876;SDS011;35771;48.978;9.294;2022-08-19T12:51:24;5.28;;;3.45;;
49876;SDS011;35771;48.978;9.294;2022-08-19T12:53:51;5.60;;;3.40;;
49876;SDS011;35771;48.978;9.294;2022-08-19T12:56:18;9.68;;;3.60;;
49876;SDS011;35771;48.978;9.294;2022-08-19T12:58:44;12.18;;;3.45;;
49876;SDS011;35771;48.978;9.294;2022-08-19T13:01:12;3.92;;;3.47;;
49876;SDS011;35771;48.978;9.294;2022-08-19T13:03:42;8.23;;;4.00;;
49876;SDS011;35771;48.978;9.294;2022-08-19T13:06:10;4.15;;;3.30;;
49876;SDS011;35771;48.978;9.294;2022-08-19T13:08:37;7.32;;;3.80;;
49876;SDS011;35771;48.978;9.294;2022-08-19T13:11:09;4.05;;;3.35;;
49876;SDS011;35771;48.978;9.294;2022-08-19T13:13:39;7.82;;;3.72;;
49876;SDS011;35771;48.978;9.294;2022-08-19T13:16:07;4.82;;;3.88;;
49876;SDS011;35771;48.978;9.294;2022-08-19T13:18:34;5.28;;;3.75;;
49876;SDS011;35771;48.978;9.294;2022-08-19T13:21:03;7.07;;;3.35;;
49876;SDS011;35771;48.978;9.294;2022-08-19T13:25:57;6.45;;;3.45;;
49876;SDS011;35771;48.978;9.294;2022-08-19T13:28:24;12.07;;;3.63;;
49876;SDS011;35771;48.978;9.294;2022-08-19T13:30:51;8.48;;;4.05;;
49876;SDS011;35771;48.978;9.294;2022-08-19T13:33:35;4.20;;;3.30;;
49876;SDS011;35771;48.978;9.294;2022-08-19T13:36:03;3.70;;;3.38;;
49876;SDS011;35771;48.978;9.294;2022-08-19T13:38:32;5.05;;;3.60;;
49876;SDS011;35771;48.978;9.294;2022-08-19T13:41:03;4.88;;;3.83;;
49876;SDS011;35771;48.978;9.294;2022-08-19T13:43:31;4.95;;;3.38;;
49876;SDS011;35771;48.978;9.294;2022-08-19T13:45:57;11.90;;;3.75;;
49876;SDS011;35771;48.978;9.294;2022-08-19T13:48:25;14.07;;;3.75;;
49876;SDS011;35771;48.978;9.294;2022-08-19T13:50:52;3.70;;;3.13;;
49876;SDS011;35771;48.978;9.294;2022-08-19T13:53:20;6.47;;;3.92;;
49876;SDS011;35771;48.978;9.294;2022-08-19T13:55:47;6.80;;;4.05;;
49876;SDS011;35771;48.978;9.294;2022-08-19T13:58:15;5.78;;;4.10;;
49876;SDS011;35771;48.978;9.294;2022-08-19T14:00:43;6.65;;;4.18;;
49876;SDS011;35771;48.978;9.294;2022-08-19T14:03:14;4.30;;;3.28;;
49876;SDS011;35771;48.978;9.294;2022-08-19T14:05:41;5.97;;;4.88;;
49876;SDS011;35771;48.978;9.294;2022-08-19T14:08:08;16.65;;;6.57;;
49876;SDS011;35771;48.978;9.294;2022-08-19T14:13:22;12.48;;;7.57;;
49876;SDS011;35771;48.978;9.294;2022-08-19T14:15:49;12.35;;;8.30;;
49876;SDS011;35771;48.978;9.294;2022-08-19T14:18:30;12.25;;;8.77;;
49876;SDS011;35771;48.978;9.294;2022-08-19T14:20:57;13.88;;;8.38;;
49876;SDS011;35771;48.978;9.294;2022-08-19T14:23:23;13.65;;;8.93;;
49876;SDS011;35771;48.978;9.294;2022-08-19T14:25:51;16.40;;;10.68;;
49876;SDS011;35771;48.978;9.294;2022-08-19T14:28:21;15.50;;;10.55;;
49876;SDS011;35771;48.978;9.294;2022-08-19T14:30:48;17.55;;;12.13;;
49876;SDS011;35771;48.978;9.294;2022-08-19T14:33:14;15.30;;;11.32;;
49876;SDS011;35771;48.978;9.294;2022-08-19T14:35:41;21.67;;;11.30;;
49876;SDS011;35771;48.978;9.294;2022-08-19T14:38:14;14.63;;;10.27;;
49876;SDS011;35771;48.978;9.294;2022-08-19T14:40:41;15.38;;;10.85;;
49876;SDS011;35771;48.978;9.294;2022-08-19T14:43:09;21.35;;;11.35;;
49876;SDS011;35771;48.978;9.294;2022-08-19T14:45:36;22.10;;;11.80;;
49876;SDS011;35771;48.978;9.294;2022-08-19T14:48:04;21.60;;;12.85;;
49876;SDS011;35771;48.978;9.294;2022-08-19T14:50:32;18.25;;;13.45;;
49876;SDS011;35771;48.978;9.294;2022-08-19T14:53:00;20.90;;;13.32;;
49876;SDS011;35771;48.978;9.294;2022-08-19T14:55:28;16.50;;;13.90;;
49876;SDS011;35771;48.978;9.294;2022-08-19T14:57:54;18.58;;;13.75;;
49876;SDS011;35771;48.978;9.294;2022-08-19T15:00:22;21.70;;;14.48;;
49876;SDS011;35771;48.978;9.294;2022-08-19T15:02:49;20.17;;;15.63;;
49876;SDS011;35771;48.978;9.294;2022-08-19T15:05:15;19.80;;;14.65;;
49876;SDS011;35771;48.978;9.294;2022-08-19T15:07:43;23.60;;;14.95;;
49876;SDS011;35771;48.978;9.294;2022-08-19T15:10:11;18.17;;;13.75;;
49876;SDS011;35771;48.978;9.294;2022-08-19T15:12:39;21.33;;;14.02;;
49876;SDS011;35771;48.978;9.294;2022-08-19T15:15:06;19.23;;;14.48;;
49876;SDS011;35771;48.978;9.294;2022-08-19T15:17:35;20.45;;;15.63;;
49876;SDS011;35771;48.978;9.294;2022-08-19T15:20:02;23.30;;;16.45;;
49876;SDS011;35771;48.978;9.294;2022-08-19T15:22:29;25.50;;;16.73;;
49876;SDS011;35771;48.978;9.294;2022-08-19T15:24:56;25.15;;;15.60;;
49876;SDS011;35771;48.978;9.294;2022-08-19T15:27:23;25.27;;;16.98;;
49876;SDS011;35771;48.978;9.294;2022-08-19T15:29:49;20.65;;;16.73;;
49876;SDS011;35771;48.978;9.294;2022-08-19T15:32:16;21.45;;;16.27;;
49876;SDS011;35771;48.978;9.294;2022-08-19T15:34:44;28.02;;;18.55;;
49876;SDS011;35771;48.978;9.294;2022-08-19T15:37:13;24.17;;;17.08;;
49876;SDS011;35771;48.978;9.294;2022-08-19T15:39:40;24.13;;;17.35;;
49876;SDS011;35771;48.978;9.294;2022-08-19T15:42:07;20.63;;;15.35;;
49876;SDS011;35771;48.978;9.294;2022-08-19T15:44:33;20.27;;;16.25;;
49876;SDS011;35771;48.978;9.294;2022-08-19T15:47:00;25.83;;;15.63;;
49876;SDS011;35771;48.978;9.294;2022-08-19T15:49:26;21.38;;;14.50;;
49876;SDS011;35771;48.978;9.294;2022-08-19T15:51:54;20.17;;;15.10;;
49876;SDS011;35771;48.978;9.294;2022-08-19T15:54:21;25.63;;;16.15;;
49876;SDS011;35771;48.978;9.294;2022-08-19T15:56:49;21.38;;;15.82;;
49876;SDS011;35771;48.978;9.294;2022-08-19T15:59:34;22.38;;;15.50;;
49876;SDS011;35771;48.978;9.294;2022-08-19T16:02:20;21.08;;;15.30;;
49876;SDS011;35771;48.978;9.294;2022-08-19T16:05:08;18.73;;;14.57;;
49876;SDS011;35771;48.978;9.294;2022-08-19T16:07:52;18.63;;;14.70;;
49876;SDS011;35771;48.978;9.294;2022-08-19T16:10:19;20.15;;;13.88;;
49876;SDS011;35771;48.978;9.294;2022-08-19T16:12:46;17.60;;;13.45;;
49876;SDS011;35771;48.978;9.294;2022-08-19T16:15:12;18.98;;;13.35;;
49876;SDS011;35771;48.978;9.294;2022-08-19T16:17:39;16.75;;;13.13;;
49876;SDS011;35771;48.978;9.294;2022-08-19T16:20:07;19.25;;;12.23;;
49876;SDS011;35771;48.978;9.294;2022-08-19T16:22:35;16.45;;;12.27;;
49876;SDS011;35771;48.978;9.294;2022-08-19T16:25:05;16.33;;;12.40;;
49876;SDS011;35771;48.978;9.294;2022-08-19T16:27:32;16.10;;;12.75;;
49876;SDS011;35771;48.978;9.294;2022-08-19T16:29:59;15.48;;;10.88;;
49876;SDS011;35771;48.978;9.294;2022-08-19T16:32:26;16.52;;;11.02;;
49876;SDS011;35771;48.978;9.294;2022-08-19T16:34:52;13.35;;;11.88;;
49876;SDS011;35771;48.978;9.294;2022-08-19T16:37:19;16.58;;;10.35;;
49876;SDS011;35771;48.978;9.294;2022-08-19T16:39:47;15.45;;;10.60;;
49876;SDS011;35771;48.978;9.294;2022-08-19T16:42:15;14.52;;;10.95;;
49876;SDS011;35771;48.978;9.294;2022-08-19T16:44:42;16.75;;;11.73;;
49876;SDS011;35771;48.978;9.294;2022-08-19T16:47:10;16.40;;;10.77;;
49876;SDS011;35771;48.978;9.294;2022-08-19T16:49:37;13.05;;;10.02;;
49876;SDS011;35771;48.978;9.294;2022-08-19T16:52:05;13.05;;;10.25;;
49876;SDS011;35771;48.978;9.294;2022-08-19T16:54:33;13.50;;;9.90;;
49876;SDS011;35771;48.978;9.294;2022-08-19T16:57:01;17.90;;;9.82;;
49876;SDS011;35771;48.978;9.294;2022-08-19T16:59:29;13.68;;;10.50;;
49876;SDS011;35771;48.978;9.294;2022-08-19T17:01:57;19.27;;;10.90;;
49876;SDS011;35771;48.978;9.294;2022-08-19T17:04:23;13.10;;;10.57;;
49876;SDS011;35771;48.978;9.294;2022-08-19T17:06:50;14.60;;;11.07;;
49876;SDS011;35771;48.978;9.294;2022-08-19T17:09:16;13.13;;;10.13;;
49876;SDS011;35771;48.978;9.294;2022-08-19T17:11:43;14.65;;;10.65;;
49876;SDS011;35771;48.978;9.294;2022-08-19T17:14:10;14.13;;;10.85;;
49876;SDS011;35771;48.978;9.294;2022-08-19T17:16:39;13.95;;;10.80;;
49876;SDS011;35771;48.978;9.294;2022-08-19T17:19:06;13.55;;;10.80;;
49876;SDS011;35771;48.978;9.294;2022-08-19T17:21:34;13.98;;;10.85;;
49876;SDS011;35771;48.978;9.294;2022-08-19T17:24:03;14.43;;;11.17;;
49876;SDS011;35771;48.978;9.294;2022-08-19T17:26:31;13.63;;;10.43;;
49876;SDS011;35771;48.978;9.294;2022-08-19T17:28:58;14.23;;;11.23;;
49876;SDS011;35771;48.978;9.294;2022-08-19T17:31:26;12.75;;;10.63;;
49876;SDS011;35771;48.978;9.294;2022-08-19T17:33:58;12.43;;;10.93;;
49876;SDS011;35771;48.978;9.294;2022-08-19T17:36:27;14.13;;;10.63;;
49876;SDS011;35771;48.978;9.294;2022-08-19T17:38:55;11.85;;;10.20;;
49876;SDS011;35771;48.978;9.294;2022-08-19T17:41:24;18.15;;;11.20;;
49876;SDS011;35771;48.978;9.294;2022-08-19T17:43:52;12.95;;;10.55;;
49876;SDS011;35771;48.978;9.294;2022-08-19T17:46:18;11.93;;;9.75;;
49876;SDS011;35771;48.978;9.294;2022-08-19T17:48:46;12.88;;;10.40;;
49876;SDS011;35771;48.978;9.294;2022-08-19T17:53:46;14.15;;;10.48;;
49876;SDS011;35771;48.978;9.294;2022-08-19T17:56:14;12.07;;;9.82;;
49876;SDS011;35771;48.978;9.294;2022-08-19T17:58:41;16.10;;;11.00;;
49876;SDS011;35771;48.978;9.294;2022-08-19T18:01:09;13.68;;;10.80;;
49876;SDS011;35771;48.978;9.294;2022-08-19T18:03:36;15.48;;;10.68;;
49876;SDS011;35771;48.978;9.294;2022-08-19T18:06:03;14.27;;;11.35;;
49876;SDS011;35771;48.978;9.294;2022-08-19T18:08:31;12.45;;;9.38;;
49876;SDS011;35771;48.978;9.294;2022-08-19T18:11:00;13.18;;;10.43;;
49876;SDS011;35771;48.978;9.294;2022-08-19T18:13:27;12.38;;;11.07;;
49876;SDS011;35771;48.978;9.294;2022-08-19T18:15:54;14.30;;;10.48;;
49876;SDS011;35771;48.978;9.294;2022-08-19T18:18:22;14.13;;;11.00;;
49876;SDS011;35771;48.978;9.294;2022-08-19T18:20:49;19.08;;;11.65;;
49876;SDS011;35771;48.978;9.294;2022-08-19T18:23:15;15.27;;;11.50;;
49876;SDS011;35771;48.978;9.294;2022-08-19T18:25:47;16.63;;;11.57;;
49876;SDS011;35771;48.978;9.294;2022-08-19T18:28:14;15.73;;;12.00;;
49876;SDS011;35771;48.978;9.294;2022-08-19T18:30:40;12.20;;;10.75;;
49876;SDS011;35771;48.978;9.294;2022-08-19T18:33:07;12.45;;;10.82;;
49876;SDS011;35771;48.978;9.294;2022-08-19T18:35:38;16.58;;;11.60;;
49876;SDS011;35771;48.978;9.294;2022-08-19T18:38:09;15.15;;;11.30;;
49876;SDS011;35771;48.978;9.294;2022-08-19T18:40:51;15.23;;;11.55;;
49876;SDS011;35771;48.978;9.294;2022-08-19T18:43:35;13.63;;;11.50;;
49876;SDS011;35771;48.978;9.294;2022-08-19T18:46:19;18.05;;;11.73;;
49876;SDS011;35771;48.978;9.294;2022-08-19T18:49:03;13.50;;;11.25;;
49876;SDS011;35771;48.978;9.294;2022-08-19T18:51:30;14.27;;;11.30;;
49876;SDS011;35771;48.978;9.294;2022-08-19T18:53:57;15.35;;;11.07;;
49876;SDS011;35771;48.978;9.294;2022-08-19T18:56:27;15.07;;;10.25;;
49876;SDS011;35771;48.978;9.294;2022-08-19T18:58:56;13.95;;;10.77;;
49876;SDS011;35771;48.978;9.294;2022-08-19T19:01:24;20.25;;;11.25;;
49876;SDS011;35771;48.978;9.294;2022-08-19T19:03:53;13.88;;;11.27;;
49876;SDS011;35771;48.978;9.294;2022-08-19T19:06:21;21.60;;;11.57;;
49876;SDS011;35771;48.978;9.294;2022-08-19T19:08:53;17.70;;;11.88;;
49876;SDS011;35771;48.978;9.294;2022-08-19T19:11:21;13.18;;;11.45;;
49876;SDS011;35771;48.978;9.294;2022-08-19T19:13:50;14.70;;;11.13;;
49876;SDS011;35771;48.978;9.294;2022-08-19T19:16:17;20.10;;;13.18;;
49876;SDS011;35771;48.978;9.294;2022-08-19T19:18:44;18.77;;;12.27;;
49876;SDS011;35771;48.978;9.294;2022-08-19T19:21:10;17.75;;;12.02;;
49876;SDS011;35771;48.978;9.294;2022-08-19T19:23:37;15.68;;;12.35;;
49876;SDS011;35771;48.978;9.294;2022-08-19T19:26:06;17.67;;;12.13;;
49876;SDS011;35771;48.978;9.294;2022-08-19T19:28:35;17.10;;;11.73;;
49876;SDS011;35771;48.978;9.294;2022-08-19T19:31:11;14.93;;;13.02;;
49876;SDS011;35771;48.978;9.294;2022-08-19T19:33:39;18.17;;;12.10;;
49876;SDS011;35771;48.978;9.294;2022-08-19T19:36:06;16.38;;;12.90;;
49876;SDS011;35771;48.978;9.294;2022-08-19T19:38:33;13.98;;;11.43;;
49876;SDS011;35771;48.978;9.294;2022-08-19T19:41:00;15.23;;;10.95;;
49876;SDS011;35771;48.978;9.294;2022-08-19T19:43:26;16.88;;;13.90;;
49876;SDS011;35771;48.978;9.294;2022-08-19T19:45:53;18.67;;;12.45;;
49876;SDS011;35771;48.978;9.294;2022-08-19T19:48:21;15.98;;;11.60;;
49876;SDS011;35771;48.978;9.294;2022-08-19T19:50:48;16.33;;;11.27;;
49876;SDS011;35771;48.978;9.294;2022-08-19T19:53:15;16.55;;;12.98;;
49876;SDS011;35771;48.978;9.294;2022-08-19T19:55:41;15.05;;;11.73;;
49876;SDS011;35771;48.978;9.294;2022-08-19T19:58:08;17.85;;;12.98;;
49876;SDS011;35771;48.978;9.294;2022-08-19T20:00:34;18.75;;;13.15;;
49876;SDS011;35771;48.978;9.294;2022-08-19T20:03:01;15.38;;;12.98;;
49876;SDS011;35771;48.978;9.294;2022-08-19T20:05:29;17.50;;;13.55;;
49876;SDS011;35771;48.978;9.294;2022-08-19T20:07:55;14.48;;;11.25;;
49876;SDS011;35771;48.978;9.294;2022-08-19T20:10:40;17.70;;;12.27;;
49876;SDS011;35771;48.978;9.294;2022-08-19T20:13:08;15.65;;;12.02;;
49876;SDS011;35771;48.978;9.294;2022-08-19T20:15:36;16.10;;;12.82;;
49876;SDS011;35771;48.978;9.294;2022-08-19T20:18:04;18.95;;;13.95;;
49876;SDS011;35771;48.978;9.294;2022-08-19T20:20:32;16.60;;;12.82;;
49876;SDS011;35771;48.978;9.294;2022-08-19T20:22:59;17.23;;;12.85;;
49876;SDS011;35771;48.978;9.294;2022-08-19T20:25:26;18.88;;;13.52;;
49876;SDS011;35771;48.978;9.294;2022-08-19T20:27:52;18.02;;;12.57;;
49876;SDS011;35771;48.978;9.294;2022-08-19T20:30:19;17.65;;;12.95;;
49876;SDS011;35771;48.978;9.294;2022-08-19T20:32:47;18.77;;;14.00;;
49876;SDS011;35771;48.978;9.294;2022-08-19T20:35:15;18.67;;;11.95;;
49876;SDS011;35771;48.978;9.294;2022-08-19T20:37:44;19.17;;;12.15;;
49876;SDS011;35771;48.978;9.294;2022-08-19T20:40:11;19.95;;;13.05;;
49876;SDS011;35771;48.978;9.294;2022-08-19T20:42:39;15.57;;;12.38;;
49876;SDS011;35771;48.978;9.294;2022-08-19T20:45:07;16.00;;;12.55;;
49876;SDS011;35771;48.978;9.294;2022-08-19T20:47:36;16.27;;;12.77;;
49876;SDS011;35771;48.978;9.294;2022-08-19T20:50:06;16.15;;;12.90;;
49876;SDS011;35771;48.978;9.294;2022-08-19T20:52:33;20.05;;;14.20;;
49876;SDS011;35771;48.978;9.294;2022-08-19T20:55:03;14.40;;;12.32;;
49876;SDS011;35771;48.978;9.294;2022-08-19T20:57:30;16.10;;;13.63;;
49876;SDS011;35771;48.978;9.294;2022-08-19T20:59:56;16.23;;;13.25;;
49876;SDS011;35771;48.978;9.294;2022-08-19T21:02:23;18.92;;;13.90;;
49876;SDS011;35771;48.978;9.294;2022-08-19T21:04:50;18.35;;;15.15;;
49876;SDS011;35771;48.978;9.294;2022-08-19T21:07:16;22.25;;;14.13;;
49876;SDS011;35771;48.978;9.294;2022-08-19T21:09:43;19.30;;;14.35;;
49876;SDS011;35771;48.978;9.294;2022-08-19T21:12:11;19.92;;;15.43;;
49876;SDS011;35771;48.978;9.294;2022-08-19T21:14:38;19.25;;;14.75;;
49876;SDS011;35771;48.978;9.294;2022-08-19T21:17:05;20.42;;;14.98;;
49876;SDS011;35771;48.978;9.294;2022-08-19T21:19:32;20.95;;;15.05;;
49876;SDS011;35771;48.978;9.294;2022-08-19T21:21:59;17.75;;;14.05;;
49876;SDS011;35771;48.978;9.294;2022-08-19T21:24:25;21.30;;;14.35;;
49876;SDS011;35771;48.978;9.294;2022-08-19T21:26:52;19.90;;;15.07;;
49876;SDS011;35771;48.978;9.294;2022-08-19T21:29:20;18.10;;;13.88;;
49876;SDS011;35771;48.978;9.294;2022-08-19T21:31:46;15.85;;;13.02;;
49876;SDS011;35771;48.978;9.294;2022-08-19T21:34:14;18.73;;;13.80;;
49876;SDS011;35771;48.978;9.294;2022-08-19T21:36:42;16.95;;;14.23;;
49876;SDS011;35771;48.978;9.294;2022-08-19T21:39:09;20.73;;;14.15;;
49876;SDS011;35771;48.978;9.294;2022-08-19T21:41:35;20.17;;;13.55;;
49876;SDS011;35771;48.978;9.294;2022-08-19T21:44:03;17.58;;;13.45;;
49876;SDS011;35771;48.978;9.294;2022-08-19T21:46:30;15.00;;;12.75;;
49876;SDS011;35771;48.978;9.294;2022-08-19T21:48:57;18.15;;;13.35;;
49876;SDS011;35771;48.978;9.294;2022-08-19T21:51:24;18.38;;;13.30;;
49876;SDS011;35771;48.978;9.294;2022-08-19T21:53:50;15.88;;;13.25;;
49876;SDS011;35771;48.978;9.294;2022-08-19T21:56:17;15.98;;;12.07;;
49876;SDS011;35771;48.978;9.294;2022-08-19T21:58:44;16.17;;;12.57;;
49876;SDS011;35771;48.978;9.294;2022-08-19T22:01:10;19.02;;;13.73;;
49876;SDS011;35771;48.978;9.294;2022-08-19T22:03:38;21.20;;;13.90;;
49876;SDS011;35771;48.978;9.294;2022-08-19T22:06:05;18.95;;;12.88;;
49876;SDS011;35771;48.978;9.294;2022-08-19T22:08:32;16.77;;;12.73;;
49876;SDS011;35771;48.978;9.294;2022-08-19T22:10:58;14.77;;;12.25;;
49876;SDS011;35771;48.978;9.294;2022-08-19T22:13:26;15.15;;;12.68;;
49876;SDS011;35771;48.978;9.294;2022-08-19T22:15:52;15.55;;;13.15;;